createdAt,value
2017-07-28T00:01:28.366Z,100975.69
2017-07-28T00:03:54.623Z,100971.92
2017-07-28T00:06:20.879Z,100977.90
2017-07-28T00:08:47.104Z,100974.34
2017-07-28T00:11:13.376Z,100975.90
2017-07-28T00:13:39.639Z,100977.27
2017-07-28T00:17:35.931Z,100982.30
2017-07-28T00:20:02.286Z,100980.38
2017-07-28T00:22:28.598Z,100980.73
2017-07-28T00:24:54.851Z,100986.98
2017-07-28T00:27:21.109Z,100987.73
2017-07-28T00:29:47.351Z,100991.12
2017-07-28T00:32:13.592Z,100987.73
2017-07-28T00:34:39.868Z,100990.67
2017-07-28T00:37:06.125Z,100994.88
2017-07-28T00:39:32.368Z,100996.75
2017-07-28T00:41:58.604Z,100999.16
2017-07-28T00:44:24.851Z,100994.08
2017-07-28T00:46:51.117Z,100993.61
2017-07-28T00:49:17.357Z,100987.70
2017-07-28T00:51:43.587Z,100980.75
2017-07-28T00:54:09.827Z,100983.13
2017-07-28T00:56:36.069Z,100983.88
2017-07-28T00:59:02.340Z,100988.05
2017-07-28T01:01:28.585Z,100988.63
2017-07-28T01:03:54.884Z,100983.48
2017-07-28T01:06:21.184Z,100991.14
2017-07-28T01:08:47.460Z,100989.66
2017-07-28T01:11:13.781Z,100998.27
2017-07-28T01:13:40.024Z,100993.58
2017-07-28T01:17:35.613Z,100996.20
2017-07-28T01:20:01.888Z,100992.73
2017-07-28T01:22:28.703Z,100989.25
2017-07-28T01:24:54.939Z,101002.83
2017-07-28T01:27:21.172Z,101000.23
2017-07-28T01:29:50.296Z,101000.91
2017-07-28T01:32:16.577Z,101002.61
2017-07-28T01:34:42.832Z,101007.33
2017-07-28T01:37:09.095Z,101006.98
2017-07-28T01:39:35.372Z,101010.70
2017-07-28T01:42:01.679Z,101011.59
2017-07-28T01:44:27.951Z,101017.03
2017-07-28T01:46:54.216Z,101020.05
2017-07-28T01:49:20.489Z,101020.68
2017-07-28T01:51:46.734Z,101014.88
2017-07-28T01:54:13.016Z,101011.56
2017-07-28T01:56:39.280Z,101008.08
2017-07-28T01:59:05.541Z,101005.69
2017-07-28T02:01:31.795Z,100999.75
2017-07-28T02:03:58.060Z,101001.33
2017-07-28T02:06:24.419Z,101006.25
2017-07-28T02:08:50.694Z,101011.02
2017-07-28T02:11:16.938Z,101010.72
2017-07-28T02:13:43.181Z,101006.31
2017-07-28T02:17:35.348Z,101009.98
2017-07-28T02:20:01.652Z,101016.95
2017-07-28T02:22:27.905Z,101016.92
2017-07-28T02:24:54.128Z,101023.79
2017-07-28T02:27:20.368Z,101031.71
2017-07-28T02:29:46.627Z,101032.03
2017-07-28T02:32:12.877Z,101022.66
2017-07-28T02:34:39.116Z,101024.83
2017-07-28T02:37:05.348Z,101026.73
2017-07-28T02:39:31.571Z,101019.56
2017-07-28T02:41:57.832Z,101020.75
2017-07-28T02:44:24.076Z,101022.91
2017-07-28T02:46:50.311Z,101026.08
2017-07-28T02:49:16.748Z,101019.92
2017-07-28T02:51:42.972Z,101025.59
2017-07-28T02:54:09.231Z,101037.91
2017-07-28T02:56:35.463Z,101034.28
2017-07-28T02:59:01.718Z,101032.97
2017-07-28T03:01:27.996Z,101025.93
2017-07-28T03:03:54.239Z,101029.66
2017-07-28T03:06:20.504Z,101023.30
2017-07-28T03:08:47.188Z,101025.80
2017-07-28T03:11:13.427Z,101031.53
2017-07-28T03:13:39.679Z,101031.62
2017-07-28T03:17:36.663Z,101036.85
2017-07-28T03:20:02.899Z,101044.37
2017-07-28T03:22:29.157Z,101036.25
2017-07-28T03:24:55.392Z,101043.41
2017-07-28T03:27:21.635Z,101038.03
2017-07-28T03:29:47.875Z,101037.22
2017-07-28T03:32:14.121Z,101038.64
2017-07-28T03:34:40.364Z,101036.38
2017-07-28T03:37:06.595Z,101028.14
2017-07-28T03:39:32.852Z,101028.20
2017-07-28T03:41:59.096Z,101037.30
2017-07-28T03:44:25.336Z,101033.72
2017-07-28T03:46:51.567Z,101039.45
2017-07-28T03:49:17.850Z,101043.15
2017-07-28T03:51:44.263Z,101044.36
2017-07-28T03:54:10.533Z,101040.91
2017-07-28T03:56:36.800Z,101031.44
2017-07-28T03:59:03.032Z,101038.83
2017-07-28T04:01:29.295Z,101045.14
2017-07-28T04:03:55.567Z,101049.68
2017-07-28T04:06:21.793Z,101041.01
2017-07-28T04:08:48.071Z,101041.14
2017-07-28T04:11:14.341Z,101044.27
2017-07-28T04:13:40.600Z,101052.75
2017-07-28T04:17:35.705Z,101052.28
2017-07-28T04:20:01.973Z,101059.66
2017-07-28T04:22:28.205Z,101055.02
2017-07-28T04:24:54.456Z,101056.83
2017-07-28T04:27:20.706Z,101055.41
2017-07-28T04:29:47.048Z,101050.44
2017-07-28T04:32:13.295Z,101050.52
2017-07-28T04:34:39.528Z,101068.05
2017-07-28T04:37:05.766Z,101067.70
2017-07-28T04:39:32.033Z,101067.89
2017-07-28T04:41:58.315Z,101073.97
2017-07-28T04:44:24.552Z,101070.09
2017-07-28T04:46:50.781Z,101071.58
2017-07-28T04:49:17.006Z,101068.84
2017-07-28T04:51:43.256Z,101075.08
2017-07-28T04:54:09.538Z,101083.70
2017-07-28T04:56:35.771Z,101083.45
2017-07-28T04:59:01.996Z,101075.42
2017-07-28T05:01:28.216Z,101069.50
2017-07-28T05:03:54.458Z,101072.67
2017-07-28T05:06:20.702Z,101079.93
2017-07-28T05:08:46.964Z,101076.86
2017-07-28T05:11:13.436Z,101081.02
2017-07-28T05:13:39.681Z,101082.02
2017-07-28T05:17:35.618Z,101083.50
2017-07-28T05:20:01.871Z,101087.56
2017-07-28T05:22:28.113Z,101086.72
2017-07-28T05:24:54.372Z,101092.48
2017-07-28T05:27:20.645Z,101092.42
2017-07-28T05:29:46.903Z,101093.16
2017-07-28T05:32:13.174Z,101096.22
2017-07-28T05:34:39.437Z,101102.61
2017-07-28T05:37:05.668Z,101094.36
2017-07-28T05:39:31.928Z,101112.33
2017-07-28T05:41:58.208Z,101112.16
2017-07-28T05:44:24.459Z,101106.95
2017-07-28T05:46:50.711Z,101116.95
2017-07-28T05:49:16.960Z,101121.43
2017-07-28T05:51:43.192Z,101117.67
2017-07-28T05:54:09.465Z,101127.12
2017-07-28T05:56:35.739Z,101129.88
2017-07-28T05:59:01.989Z,101120.46
2017-07-28T06:01:28.243Z,101123.57
2017-07-28T06:03:54.501Z,101134.16
2017-07-28T06:06:20.796Z,101126.36
2017-07-28T06:08:47.040Z,101127.72
2017-07-28T06:11:13.292Z,101134.17
2017-07-28T06:13:39.531Z,101127.56
2017-07-28T06:17:36.104Z,101130.41
2017-07-28T06:20:02.418Z,101131.73
2017-07-28T06:22:28.671Z,101144.42
2017-07-28T06:24:54.920Z,101148.52
2017-07-28T06:27:21.156Z,101139.31
2017-07-28T06:29:47.514Z,101144.95
2017-07-28T06:32:13.795Z,101142.97
2017-07-28T06:34:40.063Z,101140.02
2017-07-28T06:37:06.303Z,101141.76
2017-07-28T06:39:32.543Z,101148.79
2017-07-28T06:41:58.820Z,101143.27
2017-07-28T06:44:25.131Z,101152.74
2017-07-28T06:46:52.823Z,101142.78
2017-07-28T06:49:19.071Z,101140.06
2017-07-28T06:51:45.336Z,101144.22
2017-07-28T06:54:11.612Z,101140.09
2017-07-28T06:56:37.901Z,101153.38
2017-07-28T06:59:04.204Z,101159.94
2017-07-28T07:01:30.450Z,101152.36
2017-07-28T07:03:56.696Z,101161.05
2017-07-28T07:06:22.952Z,101171.33
2017-07-28T07:08:49.233Z,101180.30
2017-07-28T07:11:15.525Z,101187.86
2017-07-28T07:13:41.777Z,101191.34
2017-07-28T07:17:36.038Z,101176.52
2017-07-28T07:20:02.353Z,101186.80
2017-07-28T07:22:29.516Z,101180.06
2017-07-28T07:24:55.762Z,101188.67
2017-07-28T07:27:22.043Z,101180.70
2017-07-28T07:29:48.292Z,101186.64
2017-07-28T07:32:14.567Z,101182.56
2017-07-28T07:34:40.815Z,101168.95
2017-07-28T07:37:07.265Z,101172.84
2017-07-28T07:39:33.524Z,101186.77
2017-07-28T07:41:59.787Z,101171.88
2017-07-28T07:44:26.049Z,101177.88
2017-07-28T07:46:52.291Z,101186.36
2017-07-28T07:49:18.571Z,101195.99
2017-07-28T07:51:44.865Z,101198.35
2017-07-28T07:54:11.149Z,101201.61
2017-07-28T07:56:37.512Z,101207.57
2017-07-28T07:59:03.882Z,101208.22
2017-07-28T08:01:30.291Z,101203.97
2017-07-28T08:03:56.556Z,101206.83
2017-07-28T08:06:22.806Z,101210.38
2017-07-28T08:08:49.129Z,101210.62
2017-07-28T08:11:15.388Z,101216.55
2017-07-28T08:13:41.649Z,101221.06
2017-07-28T08:17:35.720Z,101225.34
2017-07-28T08:20:02.132Z,101227.39
2017-07-28T08:22:28.450Z,101240.53
2017-07-28T08:24:54.682Z,101236.49
2017-07-28T08:27:20.984Z,101240.00
2017-07-28T08:29:47.832Z,101240.23
2017-07-28T08:32:14.076Z,101246.17
2017-07-28T08:34:40.367Z,101249.97
2017-07-28T08:37:06.610Z,101239.55
2017-07-28T08:39:32.856Z,101241.36
2017-07-28T08:41:59.132Z,101244.96
2017-07-28T08:44:25.388Z,101239.80
2017-07-28T08:46:51.674Z,101238.91
2017-07-28T08:49:17.921Z,101251.69
2017-07-28T08:51:44.170Z,101261.75
2017-07-28T08:54:10.412Z,101258.19
2017-07-28T08:56:36.653Z,101242.74
2017-07-28T08:59:02.931Z,101265.25
2017-07-28T09:01:29.205Z,101262.70
2017-07-28T09:03:55.464Z,101268.90
2017-07-28T09:06:21.697Z,101263.02
2017-07-28T09:08:48.028Z,101252.89
2017-07-28T09:11:14.315Z,101245.30
2017-07-28T09:13:40.585Z,101248.18
2017-07-28T09:17:35.602Z,101256.20
2017-07-28T09:20:01.865Z,101264.70
2017-07-28T09:22:28.236Z,101261.59
2017-07-28T09:24:54.508Z,101263.84
2017-07-28T09:27:20.786Z,101262.83
2017-07-28T09:29:47.018Z,101266.52
2017-07-28T09:32:13.316Z,101262.55
2017-07-28T09:34:39.574Z,101253.60
2017-07-28T09:37:05.825Z,101241.47
2017-07-28T09:39:32.277Z,101232.59
2017-07-28T09:41:58.914Z,101236.72
2017-07-28T09:44:25.167Z,101252.03
2017-07-28T09:46:51.433Z,101242.86
2017-07-28T09:49:17.889Z,101261.29
2017-07-28T09:51:44.191Z,101259.55
2017-07-28T09:54:10.481Z,101255.66
2017-07-28T09:56:36.733Z,101255.13
2017-07-28T09:59:03.008Z,101257.13
2017-07-28T10:01:29.243Z,101261.49
2017-07-28T10:03:55.508Z,101259.42
2017-07-28T10:06:21.773Z,101257.68
2017-07-28T10:08:48.018Z,101269.56
2017-07-28T10:11:14.301Z,101269.86
2017-07-28T10:13:40.556Z,101273.56
2017-07-28T10:17:35.757Z,101269.80
2017-07-28T10:20:02.012Z,101274.19
2017-07-28T10:22:28.308Z,101269.66
2017-07-28T10:24:54.545Z,101262.90
2017-07-28T10:27:20.800Z,101259.34
2017-07-28T10:29:47.057Z,101266.63
2017-07-28T10:32:13.929Z,101284.77
2017-07-28T10:34:40.228Z,101261.20
2017-07-28T10:37:06.478Z,101261.96
2017-07-28T10:39:32.720Z,101252.27
2017-07-28T10:41:58.970Z,101244.30
2017-07-28T10:44:25.230Z,101242.41
2017-07-28T10:46:51.503Z,101260.52
2017-07-28T10:49:17.755Z,101255.86
2017-07-28T10:51:44.027Z,101262.41
2017-07-28T10:54:10.283Z,101260.01
2017-07-28T10:56:36.607Z,101264.89
2017-07-28T10:59:02.861Z,101242.47
2017-07-28T11:01:29.102Z,101247.83
2017-07-28T11:03:55.367Z,101266.39
2017-07-28T11:06:21.626Z,101269.89
2017-07-28T11:08:47.892Z,101271.58
2017-07-28T11:11:14.159Z,101263.61
2017-07-28T11:13:40.417Z,101264.73
2017-07-28T11:17:36.158Z,101280.26
2017-07-28T11:20:03.153Z,101285.48
2017-07-28T11:22:29.431Z,101276.42
2017-07-28T11:24:55.690Z,101287.77
2017-07-28T11:27:21.959Z,101288.84
2017-07-28T11:29:48.275Z,101311.06
2017-07-28T11:32:14.545Z,101316.67
2017-07-28T11:34:40.812Z,101309.55
2017-07-28T11:37:07.089Z,101309.81
2017-07-28T11:39:33.340Z,101309.84
2017-07-28T11:41:59.670Z,101310.36
2017-07-28T11:44:25.923Z,101311.63
2017-07-28T11:46:52.161Z,101310.45
2017-07-28T11:49:18.505Z,101302.09
2017-07-28T11:51:44.763Z,101314.52
2017-07-28T11:54:11.211Z,101305.48
2017-07-28T11:56:37.651Z,101309.27
2017-07-28T11:59:04.689Z,101316.04
2017-07-28T12:01:31.764Z,101322.20
2017-07-28T12:03:58.051Z,101324.39
2017-07-28T12:06:24.328Z,101315.69
2017-07-28T12:08:52.574Z,101316.36
2017-07-28T12:11:18.898Z,101316.42
2017-07-28T12:13:45.394Z,101317.96
2017-07-28T12:17:35.835Z,101319.28
2017-07-28T12:20:02.111Z,101318.66
2017-07-28T12:22:28.378Z,101312.43
2017-07-28T12:24:54.608Z,101322.05
2017-07-28T12:27:20.856Z,101330.18
2017-07-28T12:29:47.142Z,101335.11
2017-07-28T12:32:13.396Z,101333.52
2017-07-28T12:34:39.679Z,101331.48
2017-07-28T12:37:05.937Z,101340.00
2017-07-28T12:39:32.171Z,101337.19
2017-07-28T12:42:02.244Z,101335.34
2017-07-28T12:44:28.487Z,101343.94
2017-07-28T12:47:01.834Z,101338.61
2017-07-28T12:49:28.249Z,101345.15
2017-07-28T12:51:54.481Z,101359.39
2017-07-28T12:54:20.800Z,101351.59
2017-07-28T12:56:47.090Z,101347.35
2017-07-28T12:59:13.329Z,101344.78
2017-07-28T13:01:39.576Z,101339.55
2017-07-28T13:04:05.825Z,101342.80
2017-07-28T13:06:32.112Z,101336.22
2017-07-28T13:08:58.377Z,101342.48
2017-07-28T13:11:24.626Z,101335.08
2017-07-28T13:13:50.886Z,101346.02
2017-07-28T13:17:35.853Z,101333.51
2017-07-28T13:20:02.182Z,101327.09
2017-07-28T13:22:28.465Z,101335.65
2017-07-28T13:24:54.696Z,101335.39
2017-07-28T13:27:21.010Z,101338.30
2017-07-28T13:29:47.282Z,101340.00
2017-07-28T13:32:13.581Z,101342.30
2017-07-28T13:34:39.820Z,101342.30
2017-07-28T13:37:06.069Z,101345.19
2017-07-28T13:39:46.577Z,101342.59
2017-07-28T13:42:12.833Z,101352.03
2017-07-28T13:44:39.056Z,101361.02
2017-07-28T13:47:05.303Z,101364.99
2017-07-28T13:49:31.541Z,101359.69
2017-07-28T13:51:57.785Z,101356.25
2017-07-28T13:54:28.990Z,101357.70
2017-07-28T13:56:55.255Z,101365.78
2017-07-28T13:59:21.503Z,101366.41
2017-07-28T14:01:47.746Z,101373.81
2017-07-28T14:04:14.015Z,101384.50
2017-07-28T14:06:40.307Z,101381.55
2017-07-28T14:09:06.612Z,101374.59
2017-07-28T14:11:32.869Z,101377.08
2017-07-28T14:13:59.840Z,101378.56
2017-07-28T14:17:35.538Z,101367.46
2017-07-28T14:20:02.262Z,101373.84
2017-07-28T14:22:29.269Z,101370.08
2017-07-28T14:24:55.603Z,101364.68
2017-07-28T14:27:21.858Z,101362.45
2017-07-28T14:29:48.120Z,101363.50
2017-07-28T14:32:14.377Z,101363.38
2017-07-28T14:34:40.633Z,101357.94
2017-07-28T14:37:06.865Z,101350.03
2017-07-28T14:39:33.227Z,101356.30
2017-07-28T14:41:59.475Z,101357.73
2017-07-28T14:44:32.469Z,101356.44
2017-07-28T14:46:58.761Z,101356.30
2017-07-28T14:49:24.997Z,101349.36
2017-07-28T14:51:51.235Z,101362.52
2017-07-28T14:54:17.500Z,101359.94
2017-07-28T14:56:43.761Z,101368.38
2017-07-28T14:59:10.033Z,101351.84
2017-07-28T15:01:36.314Z,101350.66
2017-07-28T15:04:02.556Z,101357.10
2017-07-28T15:06:28.813Z,101344.13
2017-07-28T15:08:55.424Z,101348.84
2017-07-28T15:11:21.696Z,101349.05
2017-07-28T15:13:47.946Z,101346.15
2017-07-28T15:17:35.357Z,101348.56
2017-07-28T15:20:01.908Z,101354.95
2017-07-28T15:22:28.161Z,101355.73
2017-07-28T15:24:54.403Z,101352.53
2017-07-28T15:27:20.680Z,101351.95
2017-07-28T15:29:46.975Z,101352.37
2017-07-28T15:32:13.253Z,101345.69
2017-07-28T15:34:39.505Z,101350.28
2017-07-28T15:37:05.748Z,101351.38
2017-07-28T15:39:32.008Z,101344.93
2017-07-28T15:41:58.308Z,101341.31
2017-07-28T15:44:24.566Z,101342.05
2017-07-28T15:46:50.819Z,101344.13
2017-07-28T15:49:17.124Z,101343.76
2017-07-28T15:51:43.377Z,101352.18
2017-07-28T15:54:09.654Z,101353.68
2017-07-28T15:56:35.943Z,101356.34
2017-07-28T15:59:02.203Z,101358.07
2017-07-28T16:01:28.460Z,101360.26
2017-07-28T16:03:54.708Z,101367.44
2017-07-28T16:06:20.990Z,101368.03
2017-07-28T16:08:47.263Z,101366.70
2017-07-28T16:11:13.544Z,101366.80
2017-07-28T16:13:39.810Z,101362.88
2017-07-28T16:17:35.940Z,101366.95
2017-07-28T16:20:02.204Z,101375.99
2017-07-28T16:22:29.193Z,101380.06
2017-07-28T16:24:55.438Z,101384.06
2017-07-28T16:27:21.719Z,101377.27
2017-07-28T16:29:48.003Z,101380.61
2017-07-28T16:32:14.254Z,101381.99
2017-07-28T16:34:40.500Z,101383.19
2017-07-28T16:37:06.755Z,101392.00
2017-07-28T16:39:33.025Z,101378.47
2017-07-28T16:41:59.304Z,101380.24
2017-07-28T16:44:26.337Z,101382.80
2017-07-28T16:46:52.592Z,101376.14
2017-07-28T16:49:19.401Z,101384.03
2017-07-28T16:51:45.648Z,101382.55
2017-07-28T16:54:11.942Z,101383.77
2017-07-28T16:56:38.188Z,101385.48
2017-07-28T16:59:04.432Z,101393.11
2017-07-28T17:01:30.946Z,101395.44
2017-07-28T17:03:57.195Z,101396.11
2017-07-28T17:06:23.460Z,101397.41
2017-07-28T17:08:49.708Z,101396.02
2017-07-28T17:11:15.964Z,101400.10
2017-07-28T17:13:42.264Z,101392.31
2017-07-28T17:17:35.649Z,101389.17
2017-07-28T17:20:02.677Z,101393.14
2017-07-28T17:22:28.960Z,101391.20
2017-07-28T17:24:55.222Z,101397.23
2017-07-28T17:27:21.473Z,101404.45
2017-07-28T17:29:47.716Z,101399.98
2017-07-28T17:32:13.994Z,101405.73
2017-07-28T17:34:40.257Z,101410.44
2017-07-28T17:37:06.565Z,101411.58
2017-07-28T17:39:32.841Z,101405.03
2017-07-28T17:41:59.088Z,101419.39
2017-07-28T17:44:25.353Z,101414.39
2017-07-28T17:46:51.625Z,101425.33
2017-07-28T17:49:17.860Z,101427.03
2017-07-28T17:51:44.140Z,101433.77
2017-07-28T17:54:10.437Z,101427.19
2017-07-28T17:56:36.701Z,101447.77
2017-07-28T17:59:02.973Z,101428.75
2017-07-28T18:01:29.229Z,101432.30
2017-07-28T18:03:55.471Z,101433.39
2017-07-28T18:06:21.761Z,101445.16
2017-07-28T18:08:48.011Z,101453.45
2017-07-28T18:11:14.329Z,101464.89
2017-07-28T18:13:40.600Z,101466.25
2017-07-28T18:17:36.536Z,101473.48
2017-07-28T18:20:02.801Z,101480.61
2017-07-28T18:22:29.072Z,101490.58
2017-07-28T18:24:55.365Z,101484.45
2017-07-28T18:27:21.628Z,101484.42
2017-07-28T18:29:47.892Z,101480.67
2017-07-28T18:32:14.199Z,101470.05
2017-07-28T18:34:52.023Z,101477.11
2017-07-28T18:37:18.872Z,101467.93
2017-07-28T18:39:45.155Z,101459.92
2017-07-28T18:42:11.415Z,101464.13
2017-07-28T18:44:37.685Z,101454.11
2017-07-28T18:47:03.948Z,101464.86
2017-07-28T18:49:30.215Z,101455.33
2017-07-28T18:51:56.508Z,101457.26
2017-07-28T18:54:22.765Z,101454.22
2017-07-28T18:56:49.076Z,101458.34
2017-07-28T18:59:15.319Z,101459.73
2017-07-28T19:01:41.616Z,101452.41
2017-07-28T19:04:07.882Z,101457.30
2017-07-28T19:06:34.141Z,101451.47
2017-07-28T19:09:00.387Z,101446.28
2017-07-28T19:11:26.693Z,101452.02
2017-07-28T19:13:53.020Z,101446.73
2017-07-28T19:17:35.318Z,101452.45
2017-07-28T19:20:02.348Z,101449.98
2017-07-28T19:22:28.621Z,101452.41
2017-07-28T19:24:54.913Z,101455.11
2017-07-28T19:27:21.182Z,101446.45
2017-07-28T19:29:47.431Z,101448.09
2017-07-28T19:32:13.725Z,101446.23
2017-07-28T19:34:40.022Z,101438.79
2017-07-28T19:37:06.315Z,101431.10
2017-07-28T19:39:32.574Z,101435.50
2017-07-28T19:41:58.834Z,101433.74
2017-07-28T19:44:25.093Z,101432.25
2017-07-28T19:46:51.362Z,101433.84
2017-07-28T19:49:17.657Z,101441.95
2017-07-28T19:51:43.917Z,101435.85
2017-07-28T19:54:10.172Z,101435.75
2017-07-28T19:56:36.459Z,101434.17
2017-07-28T19:59:02.748Z,101436.52
2017-07-28T20:01:29.120Z,101424.59
2017-07-28T20:03:55.530Z,101420.73
2017-07-28T20:06:21.793Z,101423.63
2017-07-28T20:08:48.484Z,101414.48
2017-07-28T20:11:14.969Z,101425.08
2017-07-28T20:13:41.316Z,101427.72
2017-07-28T20:17:36.166Z,101423.14
2017-07-28T20:20:02.522Z,101423.95
2017-07-28T20:22:28.798Z,101423.73
2017-07-28T20:24:55.048Z,101424.10
2017-07-28T20:27:21.325Z,101421.34
2017-07-28T20:29:48.370Z,101412.63
2017-07-28T20:32:14.713Z,101407.92
2017-07-28T20:34:41.006Z,101406.02
2017-07-28T20:37:07.339Z,101410.41
2017-07-28T20:39:33.734Z,101405.65
2017-07-28T20:42:00.178Z,101407.95
2017-07-28T20:44:26.433Z,101421.79
2017-07-28T20:46:52.785Z,101414.41
2017-07-28T20:49:19.153Z,101418.34
2017-07-28T20:51:45.407Z,101411.56
2017-07-28T20:54:11.677Z,101411.14
2017-07-28T20:56:38.003Z,101397.71
2017-07-28T20:59:04.299Z,101411.09
2017-07-28T21:01:30.568Z,101405.63
2017-07-28T21:03:56.828Z,101408.39
2017-07-28T21:06:23.074Z,101394.73
2017-07-28T21:08:49.603Z,101393.58
2017-07-28T21:11:15.861Z,101390.38
2017-07-28T21:14:00.372Z,101387.17
2017-07-28T21:17:36.523Z,101370.98
2017-07-28T21:20:02.795Z,101352.43
2017-07-28T21:22:29.080Z,101348.80
2017-07-28T21:24:55.347Z,101349.63
2017-07-28T21:27:21.619Z,101345.44
2017-07-28T21:29:47.888Z,101349.77
2017-07-28T21:32:14.141Z,101353.80
2017-07-28T21:34:40.421Z,101348.02
2017-07-28T21:37:06.720Z,101334.88
2017-07-28T21:39:33.016Z,101339.41
2017-07-28T21:41:59.283Z,101338.48
2017-07-28T21:44:25.568Z,101328.81
2017-07-28T21:46:51.825Z,101325.72
2017-07-28T21:49:18.105Z,101319.84
2017-07-28T21:51:44.364Z,101319.98
2017-07-28T21:54:10.634Z,101322.13
2017-07-28T21:56:36.893Z,101309.94
2017-07-28T21:59:03.153Z,101312.05
2017-07-28T22:01:29.431Z,101297.69
2017-07-28T22:03:55.717Z,101299.61
2017-07-28T22:06:21.964Z,101298.27
2017-07-28T22:08:48.253Z,101303.02
2017-07-28T22:11:14.551Z,101300.23
2017-07-28T22:13:40.859Z,101301.60
2017-07-28T22:17:36.540Z,101301.31
2017-07-28T22:20:02.844Z,101306.49
2017-07-28T22:22:29.140Z,101309.81
2017-07-28T22:24:55.399Z,101303.81
2017-07-28T22:27:21.674Z,101295.38
2017-07-28T22:29:48.005Z,101302.24
2017-07-28T22:32:14.300Z,101288.95
2017-07-28T22:34:40.580Z,101286.17
2017-07-28T22:37:06.837Z,101296.38
2017-07-28T22:39:33.122Z,101298.44
2017-07-28T22:41:59.373Z,101295.92
2017-07-28T22:44:25.680Z,101289.94
2017-07-28T22:46:51.930Z,101295.79
2017-07-28T22:49:18.188Z,101294.70
2017-07-28T22:51:44.445Z,101296.55
2017-07-28T22:54:10.697Z,101304.44
2017-07-28T22:56:36.957Z,101299.31
2017-07-28T22:59:03.212Z,101290.35
2017-07-28T23:01:29.476Z,101292.00
2017-07-28T23:03:55.722Z,101300.30
2017-07-28T23:06:21.977Z,101292.28
2017-07-28T23:08:48.296Z,101289.18
2017-07-28T23:11:14.551Z,101280.55
2017-07-28T23:13:40.868Z,101267.37
2017-07-28T23:17:35.996Z,101257.66
2017-07-28T23:20:02.273Z,101258.80
2017-07-28T23:22:28.516Z,101257.20
2017-07-28T23:24:54.793Z,101256.98
2017-07-28T23:27:21.048Z,101249.63
2017-07-28T23:29:47.288Z,101246.38
2017-07-28T23:32:13.575Z,101251.94
2017-07-28T23:34:39.821Z,101247.82
2017-07-28T23:37:06.084Z,101245.44
2017-07-28T23:39:32.337Z,101235.02
2017-07-28T23:41:58.589Z,101229.64
2017-07-28T23:44:24.885Z,101233.58
2017-07-28T23:46:51.136Z,101241.72
2017-07-28T23:49:17.372Z,101240.22
2017-07-28T23:51:43.635Z,101238.03
2017-07-28T23:54:09.900Z,101233.27
2017-07-28T23:56:36.184Z,101234.76
2017-07-28T23:59:02.440Z,101229.28
